Time;durP1;ratioP1;P1;durP2;ratioP2;P2;SDS_P1;SDS_P2;PMS_P1;PMS_P2;Temp;Humidity;BMP_temperature;BMP_pressure;BME280_temperature;BME280_humidity;BME280_pressure;Samples;Min_cycle;Max_cycle;Signal;HPM_P1;HPM_P2
2021/08/11 00:01:48;;;;;;;;;;;;;;;18.07;63.53;99501.16;6209523;23;19964;-78
2021/08/11 00:04:14;;;;;;;;;;;;;;;18.08;63.30;99503.69;6183520;23;19969;-79
2021/08/11 00:06:39;;;;;;;;;;;;;;;17.92;63.69;99514.50;6212314;23;19969;-79
2021/08/11 00:09:05;;;;;;;;;;;;;;;17.91;63.44;99501.97;6212436;23;19922;-80
2021/08/11 00:11:31;;;;;;;;;;;;;;;18.02;63.48;99504.38;6160709;23;19915;-79
2021/08/11 00:13:57;;;;;;;;;;;;;;;18.04;63.17;99502.34;6136386;23;19943;-78
2021/08/11 00:16:22;;;;;;;;;;;;;;;18.01;63.26;99508.06;6211544;23;19960;-77
2021/08/11 00:18:49;;;;;;;;;;;;;;;17.89;63.61;99514.81;6211758;23;19915;-79
2021/08/11 00:21:15;;;;;;;;;;;;;;;17.88;63.55;99502.31;6136657;23;19916;-77
2021/08/11 00:23:41;;;;;;;;;;;;;;;17.80;63.53;99505.84;6160571;23;20292;-79
2021/08/11 00:26:06;;;;;;;;;;;;;;;17.81;63.80;99502.13;6136661;23;19916;-79
2021/08/11 00:28:32;;;;;;;;;;;;;;;17.85;63.62;99502.63;6160849;23;19920;-79
2021/08/11 00:30:58;;;;;;;;;;;;;;;17.86;63.76;99510.56;6135997;23;19923;-80
2021/08/11 00:33:24;;;;;;;;;;;;;;;17.87;63.26;99517.69;6185300;23;19925;-79
2021/08/11 00:35:51;;;;;;;;;;;;;;;17.85;63.62;99514.28;6185626;23;19920;-79
2021/08/11 00:38:17;;;;;;;;;;;;;;;17.83;63.40;99515.50;6136292;23;20255;-79
2021/08/11 00:40:43;;;;;;;;;;;;;;;17.83;63.26;99510.94;6160615;23;19915;-79
2021/08/11 00:43:10;;;;;;;;;;;;;;;17.87;63.42;99516.84;6136340;23;19976;-77
2021/08/11 00:45:40;;;;;;;;;;;;;;;17.84;63.35;99517.19;6161676;23;19967;-77
2021/08/11 00:48:08;;;;;;;;;;;;;;;17.87;63.16;99511.44;6160508;23;20327;-79
2021/08/11 00:50:36;;;;;;;;;;;;;;;17.80;63.07;99518.53;6112332;23;19943;-79
2021/08/11 00:53:03;;;;;;;;;;;;;;;17.76;63.22;99520.72;6160780;23;19919;-79
2021/08/11 00:55:28;;;;;;;;;;;;;;;17.74;63.28;99511.88;6160556;23;19922;-77
2021/08/11 00:57:54;;;;;;;;;;;;;;;17.70;63.17;99522.16;6185112;23;19916;-79
2021/08/11 01:00:28;;;;;;;;;;;;;;;17.63;63.43;99521.13;6162290;23;20305;-78
2021/08/11 01:02:54;;;;;;;;;;;;;;;17.70;63.52;99524.03;6185554;23;19919;-79
2021/08/11 01:05:20;;;;;;;;;;;;;;;17.70;63.08;99519.47;6111177;23;19916;-78
2021/08/11 01:07:46;;;;;;;;;;;;;;;17.59;63.30;99525.16;6185270;23;20379;-78
2021/08/11 01:10:12;;;;;;;;;;;;;;;17.56;63.43;99530.88;6136219;23;20228;-79
2021/08/11 01:12:40;;;;;;;;;;;;;;;17.57;63.55;99527.19;6161047;23;20333;-79
2021/08/11 01:15:07;;;;;;;;;;;;;;;17.52;63.43;99526.81;6185165;23;19978;-79
2021/08/11 01:17:47;;;;;;;;;;;;;;;17.46;63.78;99530.19;6166981;23;19938;-79
2021/08/11 01:20:13;;;;;;;;;;;;;;;17.41;63.84;99528.00;6211635;23;20339;-79
2021/08/11 01:22:58;;;;;;;;;;;;;;;17.38;63.91;99531.00;6160611;22;19916;-79
2021/08/11 01:25:24;;;;;;;;;;;;;;;17.38;63.82;99527.47;6135708;23;19923;-79
2021/08/11 01:27:56;;;;;;;;;;;;;;;17.33;64.07;99535.19;6160330;23;19922;-78
2021/08/11 01:30:26;;;;;;;;;;;;;;;17.31;64.41;99542.63;6112116;23;20254;-79
2021/08/11 01:32:59;;;;;;;;;;;;;;;17.22;64.61;99545.25;6160572;23;19969;-79
2021/08/11 01:35:30;;;;;;;;;;;;;;;17.12;64.83;99539.13;6136095;23;19916;-79
2021/08/11 01:37:58;;;;;;;;;;;;;;;17.09;64.95;99536.75;6155471;23;19928;-78
2021/08/11 01:40:31;;;;;;;;;;;;;;;17.09;64.93;99538.63;6130491;23;20305;-78
2021/08/11 01:42:58;;;;;;;;;;;;;;;17.14;65.03;99537.09;6155220;23;19917;-78
2021/08/11 01:45:25;;;;;;;;;;;;;;;17.13;64.74;99545.38;6155278;23;20007;-78
2021/08/11 01:47:58;;;;;;;;;;;;;;;17.03;65.15;99550.03;6131513;23;19916;-78
2021/08/11 01:50:25;;;;;;;;;;;;;;;17.07;64.98;99546.84;6155275;23;20457;-79
2021/08/11 01:52:51;;;;;;;;;;;;;;;17.15;64.78;99548.75;6155506;23;19922;-81
2021/08/11 01:55:18;;;;;;;;;;;;;;;17.13;64.94;99554.34;6130949;23;19965;-78
2021/08/11 01:57:49;;;;;;;;;;;;;;;17.03;65.05;99550.88;6155615;23;20378;-80
2021/08/11 02:00:17;;;;;;;;;;;;;;;16.98;65.16;99547.81;6155241;23;19976;-78
2021/08/11 02:02:44;;;;;;;;;;;;;;;16.92;65.42;99548.44;6179084;23;20387;-79
2021/08/11 02:05:22;;;;;;;;;;;;;;;17.04;65.04;99549.91;6156611;23;20299;-78
2021/08/11 02:07:48;;;;;;;;;;;;;;;17.15;64.63;99549.63;6155036;23;20373;-77
2021/08/11 02:10:16;;;;;;;;;;;;;;;17.31;64.49;99556.13;6155161;23;20383;-78
2021/08/11 02:12:42;;;;;;;;;;;;;;;17.38;63.92;99555.31;6154739;23;19999;-77
2021/08/11 02:15:08;;;;;;;;;;;;;;;17.24;64.38;99551.34;6130298;23;19939;-79
2021/08/11 02:17:36;;;;;;;;;;;;;;;17.29;64.04;99547.31;6155320;23;19920;-79
2021/08/11 02:20:02;;;;;;;;;;;;;;;17.28;64.36;99553.75;6155052;23;19972;-79
2021/08/11 02:22:29;;;;;;;;;;;;;;;17.21;64.23;99559.78;6179722;23;20293;-79
2021/08/11 02:24:55;;;;;;;;;;;;;;;17.27;64.22;99565.56;6154982;23;19951;-79
2021/08/11 02:27:25;;;;;;;;;;;;;;;17.17;64.53;99563.81;6154910;23;19923;-80
2021/08/11 02:29:51;;;;;;;;;;;;;;;17.16;64.78;99562.13;6130315;23;19932;-79
2021/08/11 02:32:23;;;;;;;;;;;;;;;17.26;64.42;99561.16;6155344;23;19916;-79
2021/08/11 02:34:55;;;;;;;;;;;;;;;17.11;64.85;99558.19;6154561;23;20496;-79
2021/08/11 02:37:24;;;;;;;;;;;;;;;17.20;64.79;99555.38;6157030;23;19920;-79
2021/08/11 02:39:54;;;;;;;;;;;;;;;17.36;64.27;99556.47;6135614;23;20371;-79
2021/08/11 02:42:23;;;;;;;;;;;;;;;17.39;64.22;99550.75;6136497;23;19916;-79
2021/08/11 02:44:50;;;;;;;;;;;;;;;17.51;63.97;99559.44;6136722;23;19937;-79
2021/08/11 02:47:16;;;;;;;;;;;;;;;17.58;64.04;99560.47;6112469;23;19915;-78
2021/08/11 02:49:42;;;;;;;;;;;;;;;17.60;64.05;99564.72;6136859;23;20242;-78
2021/08/11 02:52:09;;;;;;;;;;;;;;;17.72;63.87;99571.53;6185999;23;19915;-79
2021/08/11 02:54:35;;;;;;;;;;;;;;;17.73;63.81;99573.22;6136378;23;19969;-79
2021/08/11 02:57:01;;;;;;;;;;;;;;;17.73;63.93;99567.81;6160245;23;19920;-79
2021/08/11 02:59:28;;;;;;;;;;;;;;;17.75;64.28;99573.06;6160558;23;19923;-78
2021/08/11 03:01:54;;;;;;;;;;;;;;;17.69;64.71;99579.13;6186347;23;20322;-79
2021/08/11 03:04:19;;;;;;;;;;;;;;;17.64;64.94;99581.44;6265937;22;19930;-79
2021/08/11 03:06:45;;;;;;;;;;;;;;;17.75;64.83;99580.31;6184427;23;19915;-78
2021/08/11 03:09:12;;;;;;;;;;;;;;;17.84;64.48;99587.47;6161367;23;20250;-80
2021/08/11 03:11:38;;;;;;;;;;;;;;;18.05;63.95;99589.72;6185710;23;19915;-80
2021/08/11 03:14:05;;;;;;;;;;;;;;;18.11;63.49;99589.09;6161043;23;20003;-79
2021/08/11 03:16:36;;;;;;;;;;;;;;;18.13;63.61;99593.34;6161257;23;20255;-79
2021/08/11 03:19:03;;;;;;;;;;;;;;;18.16;63.59;99587.56;6136415;23;20266;-79
2021/08/11 03:21:29;;;;;;;;;;;;;;;18.42;63.10;99589.31;6160988;23;20312;-79
2021/08/11 03:23:56;;;;;;;;;;;;;;;18.46;63.16;99593.38;6136815;23;19994;-77
2021/08/11 03:26:24;;;;;;;;;;;;;;;18.66;62.55;99594.75;6185410;23;20006;-77
2021/08/11 03:28:50;;;;;;;;;;;;;;;18.71;62.49;99596.16;6212329;23;19916;-78
2021/08/11 03:31:16;;;;;;;;;;;;;;;18.83;61.83;99597.50;6161092;23;19916;-80
2021/08/11 03:33:44;;;;;;;;;;;;;;;18.90;61.44;99593.09;6160402;23;19964;-82
2021/08/11 03:36:17;;;;;;;;;;;;;;;19.00;61.53;99599.19;6137093;23;19995;-78
2021/08/11 03:38:43;;;;;;;;;;;;;;;19.07;61.40;99600.19;6160382;23;19915;-77
2021/08/11 03:41:09;;;;;;;;;;;;;;;19.26;61.35;99606.28;6160861;23;20407;-79
2021/08/11 03:43:35;;;;;;;;;;;;;;;19.28;61.34;99605.06;6136569;23;19940;-79
2021/08/11 03:46:02;;;;;;;;;;;;;;;19.38;61.22;99602.16;6111987;23;19916;-77
2021/08/11 03:48:29;;;;;;;;;;;;;;;19.47;60.48;99601.13;6136740;23;19994;-77
2021/08/11 03:50:55;;;;;;;;;;;;;;;19.57;60.63;99604.50;6184628;23;19942;-76
2021/08/11 03:53:21;;;;;;;;;;;;;;;19.63;60.44;99593.00;6112010;23;20358;-78
2021/08/11 03:55:47;;;;;;;;;;;;;;;19.68;60.42;99599.75;6185493;23;19995;-78
2021/08/11 03:58:13;;;;;;;;;;;;;;;19.90;59.66;99593.56;6185422;23;20227;-78
2021/08/11 04:00:40;;;;;;;;;;;;;;;20.09;59.44;99582.25;6160838;23;19915;-77
2021/08/11 04:03:06;;;;;;;;;;;;;;;20.00;59.35;99588.72;6209523;23;19968;-77
2021/08/11 04:05:31;;;;;;;;;;;;;;;19.96;59.56;99590.13;6212134;23;19916;-77
2021/08/11 04:07:57;;;;;;;;;;;;;;;20.05;58.80;99582.81;6160419;23;20250;-79
2021/08/11 04:10:23;;;;;;;;;;;;;;;20.14;58.73;99589.84;6211125;23;19916;-77
2021/08/11 04:12:49;;;;;;;;;;;;;;;20.12;58.69;99591.88;6183998;23;19916;-79
2021/08/11 04:15:14;;;;;;;;;;;;;;;20.38;58.27;99584.28;6210696;23;19916;-80
2021/08/11 04:17:40;;;;;;;;;;;;;;;20.41;57.81;99587.66;6211129;23;19922;-79
2021/08/11 04:20:06;;;;;;;;;;;;;;;20.64;57.60;99582.25;6185173;23;20279;-77
2021/08/11 04:22:32;;;;;;;;;;;;;;;20.75;57.33;99587.25;6211475;23;20335;-78
2021/08/11 04:24:58;;;;;;;;;;;;;;;20.89;56.54;99594.63;6210669;23;19916;-76
2021/08/11 04:27:23;;;;;;;;;;;;;;;20.84;56.74;99580.75;6211133;23;20385;-76
2021/08/11 04:29:49;;;;;;;;;;;;;;;21.07;56.50;99586.97;6191243;23;19916;-80
2021/08/11 04:32:16;;;;;;;;;;;;;;;21.32;55.60;99589.44;6192385;22;19915;-79
2021/08/11 04:34:42;;;;;;;;;;;;;;;21.52;55.25;99590.63;6166829;23;19923;-79
2021/08/11 04:37:07;;;;;;;;;;;;;;;21.72;54.86;99587.31;6211438;23;19923;-75
2021/08/11 04:39:34;;;;;;;;;;;;;;;21.56;54.54;99585.66;6211810;23;19920;-77
2021/08/11 04:42:00;;;;;;;;;;;;;;;21.62;54.84;99584.03;6210958;23;19916;-79
2021/08/11 04:44:25;;;;;;;;;;;;;;;21.89;54.02;99586.09;6211183;23;19930;-80
2021/08/11 04:46:51;;;;;;;;;;;;;;;21.67;53.89;99581.63;6159347;23;19995;-80
2021/08/11 04:49:16;;;;;;;;;;;;;;;21.70;54.24;99586.66;6210821;23;19915;-79
2021/08/11 04:51:42;;;;;;;;;;;;;;;21.89;54.17;99602.44;6210914;23;19926;-78
2021/08/11 04:54:09;;;;;;;;;;;;;;;22.03;53.60;99601.53;6211115;23;19920;-82
2021/08/11 04:56:35;;;;;;;;;;;;;;;22.16;53.49;99597.34;6184211;23;19938;-84
2021/08/11 04:59:01;;;;;;;;;;;;;;;22.37;52.79;99600.09;6160076;22;20383;-83
2021/08/11 05:01:27;;;;;;;;;;;;;;;22.39;52.54;99598.03;6160441;23;19916;-78
2021/08/11 05:03:52;;;;;;;;;;;;;;;22.37;52.72;99594.63;6211975;23;20028;-81
2021/08/11 05:06:19;;;;;;;;;;;;;;;22.64;52.27;99595.78;6184992;23;19916;-78
2021/08/11 05:08:44;;;;;;;;;;;;;;;22.92;51.43;99590.41;6211301;23;19916;-78
2021/08/11 05:11:10;;;;;;;;;;;;;;;23.00;50.51;99592.97;6184292;23;19938;-80
2021/08/11 05:13:36;;;;;;;;;;;;;;;22.72;50.84;99589.34;6159933;23;19923;-80
2021/08/11 05:16:02;;;;;;;;;;;;;;;22.42;51.71;99586.75;6210990;23;19916;-80
2021/08/11 05:18:29;;;;;;;;;;;;;;;22.50;51.80;99594.78;6185421;23;19916;-83
2021/08/11 05:20:54;;;;;;;;;;;;;;;22.45;51.79;99591.78;6159837;23;19947;-82
2021/08/11 05:23:20;;;;;;;;;;;;;;;22.67;51.54;99594.53;6185581;23;19915;-81
2021/08/11 05:25:46;;;;;;;;;;;;;;;22.87;51.31;99595.56;6210977;23;19922;-84
2021/08/11 05:28:12;;;;;;;;;;;;;;;23.08;50.77;99593.88;6160306;23;19920;-79
2021/08/11 05:30:37;;;;;;;;;;;;;;;23.37;50.03;99595.56;6185006;23;19916;-80
2021/08/11 05:33:03;;;;;;;;;;;;;;;23.48;49.48;99603.19;6134919;23;19943;-82
2021/08/11 05:35:29;;;;;;;;;;;;;;;23.60;49.12;99592.56;6159844;23;19916;-80
2021/08/11 05:37:54;;;;;;;;;;;;;;;23.74;48.45;99591.63;6179106;23;20319;-81
2021/08/11 05:40:20;;;;;;;;;;;;;;;23.60;48.34;99600.75;6179475;23;19973;-80
2021/08/11 05:42:46;;;;;;;;;;;;;;;23.59;48.33;99599.91;6179469;23;19916;-80
2021/08/11 05:45:11;;;;;;;;;;;;;;;23.74;48.84;99597.09;6180714;23;19941;-80
2021/08/11 05:47:37;;;;;;;;;;;;;;;24.07;48.19;99597.25;6180718;23;19923;-81
2021/08/11 05:50:03;;;;;;;;;;;;;;;24.18;47.77;99598.53;6181063;23;20708;-79
2021/08/11 05:52:29;;;;;;;;;;;;;;;24.31;47.34;99593.13;6180901;23;19916;-79
2021/08/11 05:54:55;;;;;;;;;;;;;;;24.50;46.90;99590.69;6180333;23;20350;-79
2021/08/11 05:57:20;;;;;;;;;;;;;;;24.73;46.31;99591.13;6179965;22;19916;-79
2021/08/11 05:59:47;;;;;;;;;;;;;;;24.58;46.47;99585.00;6178775;23;19951;-80
2021/08/11 06:02:12;;;;;;;;;;;;;;;24.84;45.85;99584.19;6180334;23;19920;-80
2021/08/11 06:04:46;;;;;;;;;;;;;;;24.91;46.11;99585.88;6157019;23;19923;-81
2021/08/11 06:07:12;;;;;;;;;;;;;;;24.76;45.51;99584.41;6179550;23;19916;-79
2021/08/11 06:09:37;;;;;;;;;;;;;;;24.94;45.40;99582.75;6179708;23;19916;-81
2021/08/11 06:12:03;;;;;;;;;;;;;;;24.84;45.43;99584.19;6105667;23;19916;-79
2021/08/11 06:14:29;;;;;;;;;;;;;;;24.88;45.93;99594.50;6181929;23;19916;-80
2021/08/11 06:16:55;;;;;;;;;;;;;;;25.16;45.44;99585.28;6182325;23;20358;-81
2021/08/11 06:19:21;;;;;;;;;;;;;;;25.43;44.64;99592.41;6180746;23;20377;-80
2021/08/11 06:21:46;;;;;;;;;;;;;;;25.19;44.15;99595.78;6180926;23;19923;-80
2021/08/11 06:24:12;;;;;;;;;;;;;;;24.99;44.91;99589.47;6182335;23;19920;-81
2021/08/11 06:26:38;;;;;;;;;;;;;;;24.64;45.17;99589.66;6155702;23;19916;-81
2021/08/11 06:29:03;;;;;;;;;;;;;;;24.52;45.97;99594.03;6181810;23;19916;-82
2021/08/11 06:31:30;;;;;;;;;;;;;;;24.86;45.08;99587.56;6181257;23;19981;-83
2021/08/11 06:33:55;;;;;;;;;;;;;;;25.09;44.68;99589.91;6182310;23;20334;-83
2021/08/11 06:36:21;;;;;;;;;;;;;;;24.99;44.93;99589.47;6182103;23;19916;-81
2021/08/11 06:38:47;;;;;;;;;;;;;;;25.14;44.69;99592.88;6202399;23;19927;-81
2021/08/11 06:41:16;;;;;;;;;;;;;;;25.36;44.56;99580.63;6186009;23;20269;-81
2021/08/11 06:43:54;;;;;;;;;;;;;;;25.52;43.98;99573.03;6185294;23;19916;-81
2021/08/11 06:46:20;;;;;;;;;;;;;;;25.71;43.81;99577.59;6160195;23;19966;-81
2021/08/11 06:48:47;;;;;;;;;;;;;;;26.02;43.41;99579.63;6185214;23;20053;-81
2021/08/11 06:51:12;;;;;;;;;;;;;;;26.10;42.50;99581.25;6185936;23;19919;-80
2021/08/11 06:53:38;;;;;;;;;;;;;;;26.13;42.42;99580.84;6212336;23;20347;-82
2021/08/11 06:56:04;;;;;;;;;;;;;;;25.90;42.44;99571.25;6161172;23;19915;-81
2021/08/11 06:58:30;;;;;;;;;;;;;;;26.01;42.55;99577.09;6212386;23;20000;-79
2021/08/11 07:00:59;;;;;;;;;;;;;;;25.96;42.37;99579.66;6211968;23;20232;-82
2021/08/11 07:03:25;;;;;;;;;;;;;;;25.86;42.62;99575.47;6162327;23;19916;-81
2021/08/11 07:05:50;;;;;;;;;;;;;;;25.74;42.71;99571.69;6160992;23;20269;-81
2021/08/11 07:08:16;;;;;;;;;;;;;;;25.89;42.66;99571.47;6212067;23;20327;-81
2021/08/11 07:10:42;;;;;;;;;;;;;;;25.64;42.80;99566.66;6185553;23;19916;-82
2021/08/11 07:13:08;;;;;;;;;;;;;;;26.02;42.60;99567.81;6185642;23;19991;-82
2021/08/11 07:15:34;;;;;;;;;;;;;;;26.21;41.58;99566.88;6212077;23;20008;-80
2021/08/11 07:17:59;;;;;;;;;;;;;;;26.07;41.61;99559.81;6212113;23;19999;-81
2021/08/11 07:20:26;;;;;;;;;;;;;;;26.39;41.35;99558.75;6185595;23;19968;-81
2021/08/11 07:22:52;;;;;;;;;;;;;;;26.58;40.90;99550.66;6211973;23;19968;-81
2021/08/11 07:25:18;;;;;;;;;;;;;;;26.94;40.72;99549.13;6160093;23;20378;-80
2021/08/11 07:27:43;;;;;;;;;;;;;;;26.88;39.96;99551.69;6160685;23;19962;-81
2021/08/11 07:30:10;;;;;;;;;;;;;;;26.67;40.49;99559.44;6185595;23;19936;-79
2021/08/11 07:32:36;;;;;;;;;;;;;;;26.72;40.33;99557.75;6212464;23;19997;-81
2021/08/11 07:35:02;;;;;;;;;;;;;;;26.99;40.15;99555.63;6161007;23;20329;-80
2021/08/11 07:37:28;;;;;;;;;;;;;;;27.10;39.92;99560.38;6160435;23;20012;-81
2021/08/11 07:39:54;;;;;;;;;;;;;;;27.14;39.35;99562.69;6185732;23;20335;-81
2021/08/11 07:42:20;;;;;;;;;;;;;;;27.25;39.24;99557.31;6160654;23;19922;-81
2021/08/11 07:44:45;;;;;;;;;;;;;;;27.22;39.17;99551.44;6212286;23;19944;-80
2021/08/11 07:47:11;;;;;;;;;;;;;;;27.33;39.00;99554.25;6160946;23;20334;-79
2021/08/11 07:49:37;;;;;;;;;;;;;;;26.98;39.65;99556.69;6159981;23;20389;-80
2021/08/11 07:52:05;;;;;;;;;;;;;;;27.05;39.41;99562.94;6184863;23;19916;-82
2021/08/11 07:54:30;;;;;;;;;;;;;;;27.17;39.54;99557.59;6160678;23;19922;-80
2021/08/11 07:56:56;;;;;;;;;;;;;;;27.48;39.46;99562.13;6185000;23;19916;-80
2021/08/11 07:59:22;;;;;;;;;;;;;;;27.68;38.34;99564.66;6212047;23;19916;-81
2021/08/11 08:01:47;;;;;;;;;;;;;;;27.60;38.44;99562.22;6211783;23;20412;-81
2021/08/11 08:04:15;;;;;;;;;;;;;;;27.81;38.54;99553.56;6211814;23;19916;-80
2021/08/11 08:06:40;;;;;;;;;;;;;;;27.91;38.30;99555.78;6186016;23;20004;-80
2021/08/11 08:09:06;;;;;;;;;;;;;;;27.83;38.30;99567.03;6185193;23;19923;-81
2021/08/11 08:11:33;;;;;;;;;;;;;;;27.80;37.84;99560.13;6211328;23;19922;-80
2021/08/11 08:13:59;;;;;;;;;;;;;;;27.18;39.09;99562.00;6186089;23;20323;-81
2021/08/11 08:16:25;;;;;;;;;;;;;;;26.82;39.68;99569.06;6211934;23;19951;-81
2021/08/11 08:18:50;;;;;;;;;;;;;;;26.68;39.94;99562.00;6212156;23;19941;-80
2021/08/11 08:21:16;;;;;;;;;;;;;;;26.96;39.57;99558.78;6185434;23;19923;-81
2021/08/11 08:23:42;;;;;;;;;;;;;;;27.32;39.02;99569.06;6211432;23;19922;-82
2021/08/11 08:26:07;;;;;;;;;;;;;;;27.66;38.54;99563.22;6185308;23;19945;-80
2021/08/11 08:28:33;;;;;;;;;;;;;;;28.00;37.73;99564.53;6211807;23;19915;-81
2021/08/11 08:30:59;;;;;;;;;;;;;;;28.04;37.66;99554.75;6212182;23;19943;-80
2021/08/11 08:33:25;;;;;;;;;;;;;;;28.15;37.43;99562.22;6111724;23;20342;-80
2021/08/11 08:35:51;;;;;;;;;;;;;;;28.41;36.98;99561.03;6185317;23;19916;-81
2021/08/11 08:38:19;;;;;;;;;;;;;;;28.11;36.74;99560.16;6184448;23;20292;-80
2021/08/11 08:40:46;;;;;;;;;;;;;;;28.30;36.89;99559.88;6160144;23;19988;-81
2021/08/11 08:43:12;;;;;;;;;;;;;;;28.32;36.48;99551.38;6185093;23;20326;-80
2021/08/11 08:45:38;;;;;;;;;;;;;;;28.31;36.45;99550.56;6159997;23;19922;-80
2021/08/11 08:48:04;;;;;;;;;;;;;;;28.16;36.69;99560.28;6136020;23;19945;-81
2021/08/11 08:50:32;;;;;;;;;;;;;;;27.96;37.03;99557.81;6160989;23;19951;-82
2021/08/11 08:52:57;;;;;;;;;;;;;;;28.21;36.51;99558.53;6135715;23;19923;-81
2021/08/11 08:55:23;;;;;;;;;;;;;;;28.51;35.67;99554.94;6211560;23;19916;-82
2021/08/11 08:57:49;;;;;;;;;;;;;;;28.63;35.70;99555.00;6211463;23;19916;-81
2021/08/11 09:00:15;;;;;;;;;;;;;;;28.74;35.56;99565.22;6160056;23;19923;-80
2021/08/11 09:02:41;;;;;;;;;;;;;;;29.00;34.83;99555.72;6135466;23;19922;-81
2021/08/11 09:05:08;;;;;;;;;;;;;;;29.23;34.47;99557.63;6161105;23;19995;-81
2021/08/11 09:07:34;;;;;;;;;;;;;;;29.13;34.36;99563.72;6211449;23;19927;-81
2021/08/11 09:10:11;;;;;;;;;;;;;;;29.23;34.04;99550.22;6185056;23;20243;-80
2021/08/11 09:12:36;;;;;;;;;;;;;;;29.54;33.47;99553.66;6184571;23;19916;-81
2021/08/11 09:15:02;;;;;;;;;;;;;;;29.42;33.59;99555.59;6135655;23;19998;-82
2021/08/11 09:17:34;;;;;;;;;;;;;;;29.49;33.44;99551.63;6211558;23;20315;-81
2021/08/11 09:20:00;;;;;;;;;;;;;;;29.43;33.53;99557.25;6210773;23;19916;-80
2021/08/11 09:22:26;;;;;;;;;;;;;;;29.41;33.38;99554.75;6211173;23;19922;-81
2021/08/11 09:25:05;;;;;;;;;;;;;;;29.35;33.06;99554.88;6185118;23;19987;-80
2021/08/11 09:27:31;;;;;;;;;;;;;;;29.55;32.88;99560.81;6211294;23;20011;-79
2021/08/11 09:30:06;;;;;;;;;;;;;;;29.49;32.71;99561.81;6211233;23;19951;-80
2021/08/11 09:32:35;;;;;;;;;;;;;;;29.19;32.60;99568.28;6160009;23;19947;-81
2021/08/11 09:35:07;;;;;;;;;;;;;;;29.44;32.49;99559.75;6159958;23;19915;-80
2021/08/11 09:37:40;;;;;;;;;;;;;;;29.73;32.00;99549.69;6212044;23;19923;-80
2021/08/11 09:40:13;;;;;;;;;;;;;;;30.12;31.20;99565.63;6160223;23;20285;-80
2021/08/11 09:42:39;;;;;;;;;;;;;;;29.95;31.46;99560.91;6211399;23;19912;-80
2021/08/11 09:45:08;;;;;;;;;;;;;;;29.71;31.16;99554.63;6211118;23;19983;-80
2021/08/11 09:47:34;;;;;;;;;;;;;;;29.74;30.81;99558.78;6184662;23;19969;-81
2021/08/11 09:50:00;;;;;;;;;;;;;;;29.44;30.94;99550.66;6160750;23;20293;-79
2021/08/11 09:52:26;;;;;;;;;;;;;;;29.75;30.61;99555.81;6185615;23;20331;-80
2021/08/11 09:55:00;;;;;;;;;;;;;;;29.65;30.62;99550.06;6161047;23;19923;-79
2021/08/11 09:57:29;;;;;;;;;;;;;;;30.01;30.49;99559.06;6212390;22;19923;-80
2021/08/11 09:59:56;;;;;;;;;;;;;;;30.05;30.59;99556.66;6185755;23;19922;-80
2021/08/11 10:02:25;;;;;;;;;;;;;;;29.95;30.27;99563.66;6212586;23;19924;-79
2021/08/11 10:04:51;;;;;;;;;;;;;;;30.14;30.22;99558.81;6212267;23;19916;-79
2021/08/11 10:07:17;;;;;;;;;;;;;;;30.38;29.85;99550.47;6211614;23;20335;-80
2021/08/11 10:09:43;;;;;;;;;;;;;;;30.27;29.49;99556.88;6160453;23;19919;-79
2021/08/11 10:12:29;;;;;;;;;;;;;;;30.11;29.81;99562.03;6185629;23;19947;-79
2021/08/11 10:14:58;;;;;;;;;;;;;;;30.35;29.46;99560.06;6211295;23;19957;-81
2021/08/11 10:17:28;;;;;;;;;;;;;;;30.71;28.71;99558.78;6185117;23;19915;-79
2021/08/11 10:19:54;;;;;;;;;;;;;;;30.77;28.76;99537.69;6186063;23;19922;-79
2021/08/11 10:22:21;;;;;;;;;;;;;;;30.64;28.50;99558.09;6160514;23;20342;-80
2021/08/11 10:24:49;;;;;;;;;;;;;;;31.09;27.95;99553.66;6160495;23;19916;-80
2021/08/11 10:27:17;;;;;;;;;;;;;;;31.16;27.67;99559.84;6211978;22;19922;-79
2021/08/11 10:29:43;;;;;;;;;;;;;;;30.88;27.77;99553.34;6185511;23;20365;-80
2021/08/11 10:32:09;;;;;;;;;;;;;;;30.46;28.02;99555.56;6211840;23;19915;-80
2021/08/11 10:34:35;;;;;;;;;;;;;;;30.57;28.24;99557.44;6160738;23;19916;-80
2021/08/11 10:37:00;;;;;;;;;;;;;;;30.58;28.00;99559.13;6160600;22;20246;-79
2021/08/11 10:39:30;;;;;;;;;;;;;;;30.71;27.75;99553.28;6212224;23;19923;-81
2021/08/11 10:42:00;;;;;;;;;;;;;;;30.99;27.73;99546.03;6211886;23;19939;-81
2021/08/11 10:44:26;;;;;;;;;;;;;;;31.47;26.92;99552.88;6161706;23;19922;-81
2021/08/11 10:46:55;;;;;;;;;;;;;;;31.47;25.84;99543.75;6161008;22;19916;-79
2021/08/11 10:49:21;;;;;;;;;;;;;;;31.17;25.74;99554.03;6160699;23;19968;-80
2021/08/11 10:51:48;;;;;;;;;;;;;;;30.73;25.98;99545.59;6212081;23;20394;-81
2021/08/11 10:54:14;;;;;;;;;;;;;;;30.66;25.92;99550.44;6185636;23;20323;-81
2021/08/11 10:56:43;;;;;;;;;;;;;;;30.93;25.55;99549.81;6212447;23;19922;-80
2021/08/11 10:59:21;;;;;;;;;;;;;;;31.09;25.28;99557.25;6160877;23;19923;-80
2021/08/11 11:01:47;;;;;;;;;;;;;;;31.05;25.46;99556.06;6212118;23;20436;-80
2021/08/11 11:04:33;;;;;;;;;;;;;;;30.83;25.08;99553.22;6160442;23;19934;-79
2021/08/11 11:07:20;;;;;;;;;;;;;;;30.99;24.94;99554.31;6212243;23;20011;-84
2021/08/11 11:09:47;;;;;;;;;;;;;;;30.66;25.44;99560.63;6162205;23;19916;-81
2021/08/11 11:12:16;;;;;;;;;;;;;;;30.81;24.36;99554.59;6186074;23;19955;-80
2021/08/11 11:14:52;;;;;;;;;;;;;;;30.80;24.72;99547.38;6136288;23;19923;-80
2021/08/11 11:17:22;;;;;;;;;;;;;;;31.03;24.62;99551.88;6185637;23;19930;-78
2021/08/11 11:20:07;;;;;;;;;;;;;;;31.23;24.08;99559.66;6211996;23;19916;-80
2021/08/11 11:22:35;;;;;;;;;;;;;;;30.90;24.51;99551.13;6185237;23;19927;-80
2021/08/11 11:25:01;;;;;;;;;;;;;;;30.66;24.75;99555.94;6185605;23;19999;-81
2021/08/11 11:27:39;;;;;;;;;;;;;;;31.08;24.14;99557.50;6111590;23;19947;-83
2021/08/11 11:30:05;;;;;;;;;;;;;;;31.67;23.67;99555.94;6211503;23;19916;-79
2021/08/11 11:32:31;;;;;;;;;;;;;;;31.75;23.29;99554.66;6185579;23;19923;-81
2021/08/11 11:35:15;;;;;;;;;;;;;;;32.17;22.94;99563.22;6160753;23;19916;-81
2021/08/11 11:37:41;;;;;;;;;;;;;;;32.38;22.75;99555.13;6212063;23;19986;-81
2021/08/11 11:40:07;;;;;;;;;;;;;;;32.34;22.63;99562.28;6185265;23;19947;-82
2021/08/11 11:42:33;;;;;;;;;;;;;;;32.03;22.80;99564.69;6211690;23;19919;-79
2021/08/11 11:45:00;;;;;;;;;;;;;;;31.76;23.57;99553.53;6184921;23;19916;-79
2021/08/11 11:47:39;;;;;;;;;;;;;;;31.75;22.99;99556.59;6160670;23;20376;-81
2021/08/11 11:50:20;;;;;;;;;;;;;;;32.00;22.80;99565.19;6185384;23;20339;-80
2021/08/11 11:52:48;;;;;;;;;;;;;;;31.86;23.09;99555.66;6211731;23;20012;-80
2021/08/11 11:55:15;;;;;;;;;;;;;;;31.85;23.31;99567.75;6185303;23;19941;-81
2021/08/11 11:57:41;;;;;;;;;;;;;;;31.93;23.37;99572.84;6160836;23;19980;-80
2021/08/11 12:00:07;;;;;;;;;;;;;;;32.00;22.98;99570.72;6185469;23;19916;-81
2021/08/11 12:02:37;;;;;;;;;;;;;;;32.02;23.19;99568.56;6186036;23;19916;-80
2021/08/11 12:05:04;;;;;;;;;;;;;;;31.95;22.88;99567.91;6135827;23;19995;-80
2021/08/11 12:07:30;;;;;;;;;;;;;;;31.98;22.86;99561.03;6184600;23;20338;-83
2021/08/11 12:09:56;;;;;;;;;;;;;;;31.81;23.38;99558.28;6185524;23;19916;-82
2021/08/11 12:12:22;;;;;;;;;;;;;;;31.31;23.51;99567.56;6211223;23;19950;-81
2021/08/11 12:14:48;;;;;;;;;;;;;;;31.05;23.91;99564.34;6160691;23;19915;-81
2021/08/11 12:17:26;;;;;;;;;;;;;;;31.10;23.70;99556.16;6185078;23;19919;-81
2021/08/11 12:19:52;;;;;;;;;;;;;;;30.48;24.54;99562.53;6211574;23;19916;-81
2021/08/11 12:22:31;;;;;;;;;;;;;;;31.29;23.84;99564.16;6185588;23;19916;-80
2021/08/11 12:24:57;;;;;;;;;;;;;;;31.88;23.16;99567.28;6136245;23;19915;-81
2021/08/11 12:27:22;;;;;;;;;;;;;;;32.03;22.82;99578.50;6185425;23;20019;-80
2021/08/11 12:29:48;;;;;;;;;;;;;;;31.91;22.74;99559.28;6135895;23;19916;-80
2021/08/11 12:32:14;;;;;;;;;;;;;;;31.93;22.91;99564.56;6160556;23;20320;-81
2021/08/11 12:34:41;;;;;;;;;;;;;;;32.03;22.73;99567.47;6160776;23;19916;-81
2021/08/11 12:37:07;;;;;;;;;;;;;;;31.94;22.69;99560.72;6185647;23;20011;-80
2021/08/11 12:39:35;;;;;;;;;;;;;;;31.89;22.69;99564.22;6211491;23;20374;-85
2021/08/11 12:42:04;;;;;;;;;;;;;;;31.29;23.15;99569.69;6185205;23;20367;-76
2021/08/11 12:44:32;;;;;;;;;;;;;;;30.31;24.21;99563.56;6185070;23;19923;-80
2021/08/11 12:46:58;;;;;;;;;;;;;;;30.50;24.01;99562.25;6160405;23;20335;-79
2021/08/11 12:49:42;;;;;;;;;;;;;;;30.37;24.11;99562.59;6184730;23;19940;-80